createdAt,value
2023-05-14T00:01:00.247Z,50.38
2023-05-14T00:03:26.678Z,50.24
2023-05-14T00:05:53.131Z,50.30
2023-05-14T00:08:19.517Z,50.05
2023-05-14T00:10:46.122Z,50.38
2023-05-14T00:13:12.549Z,50.20
2023-05-14T00:15:41.073Z,50.41
2023-05-14T00:18:07.504Z,50.17
2023-05-14T00:20:34.030Z,50.40
2023-05-14T00:23:00.499Z,50.19
2023-05-14T00:25:26.847Z,50.38
2023-05-14T00:27:53.232Z,50.14
2023-05-14T00:30:19.582Z,50.34
2023-05-14T00:32:46.135Z,50.37
2023-05-14T00:35:13.505Z,50.51
2023-05-14T00:37:39.890Z,50.26
2023-05-14T00:40:13.511Z,50.57
2023-05-14T00:42:40.233Z,50.52
2023-05-14T00:45:06.620Z,50.64
2023-05-14T00:47:33.214Z,50.55
2023-05-14T00:49:59.926Z,50.68
2023-05-14T00:52:26.205Z,50.72
2023-05-14T00:54:52.638Z,50.58
2023-05-14T00:57:18.997Z,50.66
2023-05-14T00:59:45.433Z,50.32
2023-05-14T01:02:12.808Z,50.62
2023-05-14T01:04:39.295Z,50.52
2023-05-14T01:07:05.721Z,50.77
2023-05-14T01:09:32.462Z,50.90
2023-05-14T01:11:58.868Z,50.69
2023-05-14T01:14:25.243Z,50.58
2023-05-14T01:16:51.759Z,50.68
2023-05-14T01:19:18.259Z,50.85
2023-05-14T01:21:44.676Z,50.77
2023-05-14T01:24:11.052Z,50.60
2023-05-14T01:26:37.530Z,50.72
2023-05-14T01:29:04.537Z,50.79
2023-05-14T01:31:31.008Z,50.78
2023-05-14T01:33:57.492Z,51.10
2023-05-14T01:36:24.050Z,51.03
2023-05-14T01:38:50.503Z,51.19
2023-05-14T01:41:17.002Z,51.01
2023-05-14T01:43:43.652Z,51.02
2023-05-14T01:46:10.077Z,51.22
2023-05-14T01:48:36.607Z,51.29
2023-05-14T01:51:02.978Z,51.14
2023-05-14T01:53:29.384Z,51.04
2023-05-14T01:55:55.801Z,51.08
2023-05-14T01:58:22.181Z,50.95
2023-05-14T02:00:48.972Z,51.10
2023-05-14T02:03:15.331Z,51.04
2023-05-14T02:05:41.748Z,51.13
2023-05-14T02:08:08.164Z,50.75
2023-05-14T02:10:34.608Z,51.03
2023-05-14T02:13:01.016Z,51.07
2023-05-14T02:15:27.477Z,51.03
2023-05-14T02:17:53.874Z,50.82
2023-05-14T02:20:20.243Z,50.89
2023-05-14T02:22:46.762Z,50.94
2023-05-14T02:25:13.173Z,50.84
2023-05-14T02:27:39.765Z,50.97
2023-05-14T02:30:06.261Z,50.93
2023-05-14T02:35:00.326Z,50.93
2023-05-14T02:37:27.049Z,50.83
2023-05-14T02:39:53.503Z,50.99
2023-05-14T02:42:20.168Z,51.12
2023-05-14T02:44:46.524Z,51.16
2023-05-14T02:47:13.087Z,51.01
2023-05-14T02:49:39.680Z,51.00
2023-05-14T02:52:06.256Z,51.16
2023-05-14T02:54:32.798Z,51.14
2023-05-14T02:56:59.292Z,50.90
2023-05-14T02:59:25.640Z,50.80
2023-05-14T03:01:52.437Z,50.85
2023-05-14T03:04:19.638Z,50.81
2023-05-14T03:06:46.013Z,50.85
2023-05-14T03:09:12.509Z,50.56
2023-05-14T03:11:38.878Z,50.62
2023-05-14T03:14:05.263Z,50.63
2023-05-14T03:16:31.678Z,50.35
2023-05-14T03:18:58.290Z,50.48
2023-05-14T03:21:24.679Z,50.67
2023-05-14T03:23:51.071Z,50.61
2023-05-14T03:26:17.505Z,50.45
2023-05-14T03:28:43.928Z,50.44
2023-05-14T03:31:10.765Z,50.78
2023-05-14T03:33:37.224Z,50.60
2023-05-14T03:36:03.804Z,50.48
2023-05-14T03:38:30.303Z,50.56
2023-05-14T03:40:56.721Z,50.12
2023-05-14T03:43:23.088Z,50.52
2023-05-14T03:45:49.475Z,50.32
2023-05-14T03:48:16.242Z,49.89
2023-05-14T03:50:42.810Z,50.39
2023-05-14T03:53:09.184Z,49.97
2023-05-14T03:55:35.581Z,49.93
2023-05-14T03:58:02.046Z,49.62
2023-05-14T04:00:28.486Z,49.93
2023-05-14T04:02:54.947Z,49.94
2023-05-14T04:05:21.587Z,50.13
2023-05-14T04:07:47.983Z,50.08
2023-05-14T04:10:14.358Z,49.99
2023-05-14T04:12:40.753Z,49.98
2023-05-14T04:15:07.141Z,49.88
2023-05-14T04:17:34.946Z,49.92
2023-05-14T04:20:01.667Z,50.01
2023-05-14T04:22:28.160Z,50.26
2023-05-14T04:24:54.547Z,50.21
2023-05-14T04:27:21.176Z,50.20
2023-05-14T04:29:47.615Z,50.32
2023-05-14T04:32:14.182Z,50.22
2023-05-14T04:34:40.617Z,50.50
2023-05-14T04:37:06.946Z,50.45
2023-05-14T04:39:33.339Z,50.27
2023-05-14T04:41:59.726Z,50.38
2023-05-14T04:44:26.185Z,50.32
2023-05-14T04:46:52.796Z,50.27
2023-05-14T04:49:19.155Z,49.76
2023-05-14T04:51:45.543Z,49.93
2023-05-14T04:54:11.972Z,50.15
2023-05-14T04:56:38.359Z,50.07
2023-05-14T04:59:04.682Z,49.88
2023-05-14T05:01:31.247Z,50.01
2023-05-14T05:03:57.807Z,50.16
2023-05-14T05:06:24.413Z,50.06
2023-05-14T05:08:50.799Z,49.96
2023-05-14T05:11:17.378Z,49.97
2023-05-14T05:13:43.908Z,49.72
2023-05-14T05:16:10.297Z,49.98
2023-05-14T05:18:36.736Z,49.85
2023-05-14T05:21:03.397Z,49.73
2023-05-14T05:23:29.771Z,49.86
2023-05-14T05:25:56.122Z,49.77
2023-05-14T05:28:22.477Z,49.58
2023-05-14T05:30:49.059Z,48.96
2023-05-14T05:33:15.404Z,49.13
2023-05-14T05:35:42.462Z,49.48
2023-05-14T05:38:08.903Z,49.32
2023-05-14T05:40:35.325Z,49.75
2023-05-14T05:43:01.702Z,49.48
2023-05-14T05:45:28.175Z,49.11
2023-05-14T05:47:54.674Z,49.17
2023-05-14T05:50:21.291Z,49.47
2023-05-14T05:52:47.797Z,49.86
2023-05-14T05:55:14.855Z,50.01
2023-05-14T05:57:41.286Z,50.00
2023-05-14T06:00:07.712Z,50.03
2023-05-14T06:02:34.152Z,50.08
2023-05-14T06:05:01.025Z,49.70
2023-05-14T06:07:27.515Z,49.86
2023-05-14T06:09:53.884Z,49.63
2023-05-14T06:12:20.306Z,49.79
2023-05-14T06:14:46.641Z,49.85
2023-05-14T06:17:13.043Z,50.22
2023-05-14T06:19:39.562Z,50.06
2023-05-14T06:22:06.054Z,50.23
2023-05-14T06:24:32.436Z,50.06
2023-05-14T06:26:58.854Z,49.48
2023-05-14T06:29:25.314Z,50.06
2023-05-14T06:31:51.854Z,50.13
2023-05-14T06:34:18.462Z,50.43
2023-05-14T06:36:45.020Z,50.01
2023-05-14T06:39:11.377Z,50.24
2023-05-14T06:41:37.735Z,50.69
2023-05-14T06:44:04.331Z,50.67
2023-05-14T06:46:31.084Z,50.60
2023-05-14T06:48:59.321Z,50.77
2023-05-14T06:51:26.046Z,50.77
2023-05-14T06:53:52.680Z,50.54
2023-05-14T06:56:19.074Z,50.97
2023-05-14T06:58:45.526Z,50.78
2023-05-14T07:01:11.932Z,50.88
2023-05-14T07:03:38.338Z,50.95
2023-05-14T07:06:04.804Z,51.13
2023-05-14T07:08:31.182Z,51.17
2023-05-14T07:10:57.514Z,51.42
2023-05-14T07:13:24.914Z,51.06
2023-05-14T07:15:52.512Z,51.36
2023-05-14T07:18:19.078Z,51.13
2023-05-14T07:20:45.388Z,51.90
2023-05-14T07:23:11.868Z,52.46
2023-05-14T07:25:39.281Z,52.36
2023-05-14T07:28:05.704Z,53.21
2023-05-14T07:30:32.055Z,52.99
2023-05-14T07:32:58.560Z,52.99
2023-05-14T07:35:25.852Z,53.65
2023-05-14T07:37:52.303Z,53.18
2023-05-14T07:40:18.759Z,52.73
2023-05-14T07:42:45.397Z,52.51
2023-05-14T07:45:12.077Z,52.74
2023-05-14T07:47:38.533Z,52.49
2023-05-14T07:50:05.035Z,52.64
2023-05-14T07:52:31.400Z,52.40
2023-05-14T07:54:57.843Z,53.20
2023-05-14T07:57:24.320Z,52.89
2023-05-14T07:59:50.714Z,52.80
2023-05-14T08:02:17.674Z,52.73
2023-05-14T08:04:44.253Z,52.35
2023-05-14T08:07:10.624Z,52.44
2023-05-14T08:09:37.008Z,52.57
2023-05-14T08:12:03.490Z,52.76
2023-05-14T08:14:29.822Z,52.75
2023-05-14T08:16:58.471Z,52.66
2023-05-14T08:19:25.238Z,52.61
2023-05-14T08:21:51.615Z,52.47
2023-05-14T08:24:18.168Z,52.42
2023-05-14T08:26:44.622Z,52.43
2023-05-14T08:29:11.918Z,52.38
2023-05-14T08:31:39.334Z,52.74
2023-05-14T08:34:05.878Z,52.78
2023-05-14T08:36:32.373Z,52.79
2023-05-14T08:38:58.749Z,53.06
2023-05-14T08:41:25.138Z,53.57
2023-05-14T08:43:51.537Z,53.27
2023-05-14T08:46:17.925Z,53.13
2023-05-14T08:48:44.364Z,53.52
2023-05-14T08:51:10.767Z,52.96
2023-05-14T08:53:37.490Z,52.76
2023-05-14T08:56:03.880Z,52.77
2023-05-14T08:58:33.136Z,52.95
2023-05-14T09:01:00.538Z,53.09
2023-05-14T09:03:27.099Z,53.23
2023-05-14T09:05:53.866Z,53.47
2023-05-14T09:08:20.230Z,53.48
2023-05-14T09:10:46.578Z,53.35
2023-05-14T09:13:12.993Z,53.71
2023-05-14T09:15:39.434Z,53.32
2023-05-14T09:18:05.890Z,53.39
2023-05-14T09:20:32.577Z,53.82
2023-05-14T09:22:59.020Z,53.53
2023-05-14T09:25:25.583Z,53.64
2023-05-14T09:27:52.044Z,53.99
2023-05-14T09:30:18.430Z,53.90
2023-05-14T09:32:45.346Z,53.77
2023-05-14T09:35:11.957Z,54.27
2023-05-14T09:37:38.362Z,54.23
2023-05-14T09:40:05.851Z,54.49
2023-05-14T09:42:32.350Z,54.23
2023-05-14T09:44:58.742Z,54.57
2023-05-14T09:47:25.244Z,54.17
2023-05-14T09:49:52.249Z,54.16
2023-05-14T09:52:18.642Z,54.40
2023-05-14T09:54:45.005Z,54.55
2023-05-14T09:57:11.476Z,54.10
2023-05-14T09:59:37.859Z,54.48
2023-05-14T10:02:04.240Z,54.68
2023-05-14T10:04:33.758Z,54.45
2023-05-14T10:07:00.269Z,54.42
2023-05-14T10:09:26.686Z,54.52
2023-05-14T10:11:53.457Z,54.31
2023-05-14T10:14:19.901Z,54.48
2023-05-14T10:16:46.269Z,54.16
2023-05-14T10:19:12.740Z,55.01
2023-05-14T10:21:39.256Z,54.21
2023-05-14T10:24:07.735Z,54.52
2023-05-14T10:26:34.137Z,54.30
2023-05-14T10:29:00.530Z,54.94
2023-05-14T10:31:27.203Z,54.76
2023-05-14T10:33:54.013Z,54.62
2023-05-14T10:36:20.460Z,54.90
2023-05-14T10:38:47.013Z,54.71
2023-05-14T10:41:13.501Z,54.34
2023-05-14T10:43:40.060Z,54.40
2023-05-14T10:46:06.642Z,54.58
2023-05-14T10:48:33.288Z,54.46
2023-05-14T10:50:59.691Z,54.47
2023-05-14T10:53:26.035Z,54.16
2023-05-14T10:55:52.362Z,54.71
2023-05-14T10:58:18.909Z,54.29
2023-05-14T11:00:45.502Z,54.35
2023-05-14T11:03:12.325Z,54.50
2023-05-14T11:05:39.135Z,54.95
2023-05-14T11:08:05.495Z,54.95
2023-05-14T11:10:32.253Z,55.09
2023-05-14T11:12:58.614Z,55.04
2023-05-14T11:15:25.043Z,55.00
2023-05-14T11:17:51.483Z,55.50
2023-05-14T11:20:18.370Z,55.29
2023-05-14T11:22:45.936Z,55.54
2023-05-14T11:25:12.451Z,55.15
2023-05-14T11:27:38.832Z,55.25
2023-05-14T11:30:05.407Z,55.33
2023-05-14T11:32:31.889Z,55.16
2023-05-14T11:35:00.177Z,55.08
2023-05-14T11:37:26.606Z,55.67
2023-05-14T11:39:52.963Z,54.85
2023-05-14T11:42:20.361Z,55.47
2023-05-14T11:44:46.744Z,55.06
2023-05-14T11:47:13.146Z,55.28
2023-05-14T11:49:39.489Z,56.14
2023-05-14T11:52:05.986Z,55.99
2023-05-14T11:54:32.366Z,56.00
2023-05-14T11:56:58.762Z,55.67
2023-05-14T11:59:25.322Z,55.45
2023-05-14T12:01:51.728Z,55.62
2023-05-14T12:04:18.145Z,55.88
2023-05-14T12:06:44.640Z,55.72
2023-05-14T12:09:11.044Z,56.33
2023-05-14T12:11:37.429Z,56.01
2023-05-14T12:14:04.059Z,55.99
2023-05-14T12:16:30.498Z,55.78
2023-05-14T12:18:57.055Z,55.79
2023-05-14T12:21:23.825Z,55.97
2023-05-14T12:23:50.146Z,55.90
2023-05-14T12:26:16.518Z,56.11
2023-05-14T12:28:42.905Z,55.88
2023-05-14T12:31:09.391Z,55.81
2023-05-14T12:33:35.880Z,56.03
2023-05-14T12:36:13.491Z,56.13
2023-05-14T12:38:46.653Z,55.77
2023-05-14T12:41:13.381Z,55.70
2023-05-14T12:43:39.771Z,55.78
2023-05-14T12:46:06.164Z,55.70
2023-05-14T12:48:32.495Z,55.65
2023-05-14T12:50:58.937Z,55.41
2023-05-14T12:53:25.321Z,55.59
2023-05-14T12:55:51.802Z,55.49
2023-05-14T12:58:18.264Z,55.89
2023-05-14T13:00:44.865Z,55.57
2023-05-14T13:03:11.469Z,55.54
2023-05-14T13:05:37.948Z,55.34
2023-05-14T13:08:04.326Z,55.42
2023-05-14T13:10:30.818Z,55.63
2023-05-14T13:12:57.294Z,55.69
2023-05-14T13:15:23.873Z,55.74
2023-05-14T13:17:50.469Z,55.79
2023-05-14T13:20:17.293Z,55.40
2023-05-14T13:22:44.128Z,55.55
2023-05-14T13:25:10.505Z,55.39
2023-05-14T13:27:36.993Z,55.66
2023-05-14T13:30:03.408Z,55.75
2023-05-14T13:32:29.976Z,55.66
2023-05-14T13:34:56.402Z,55.62
2023-05-14T13:37:23.248Z,55.76
2023-05-14T13:39:51.524Z,55.35
2023-05-14T13:42:18.502Z,55.92
2023-05-14T13:44:44.977Z,55.62
2023-05-14T13:47:11.393Z,55.46
2023-05-14T13:49:37.745Z,55.53
2023-05-14T13:52:04.242Z,55.54
2023-05-14T13:54:30.747Z,55.35
2023-05-14T13:56:57.251Z,55.34
2023-05-14T13:59:24.539Z,55.74
2023-05-14T14:01:51.002Z,55.38
2023-05-14T14:04:17.870Z,55.18
2023-05-14T14:06:44.244Z,55.94
2023-05-14T14:09:10.812Z,55.76
2023-05-14T14:11:37.244Z,55.79
2023-05-14T14:14:03.655Z,55.77
2023-05-14T14:16:30.271Z,55.90
2023-05-14T14:18:57.061Z,56.36
2023-05-14T14:21:23.469Z,56.19
2023-05-14T14:23:49.890Z,55.97
2023-05-14T14:26:17.418Z,55.95
2023-05-14T14:28:43.844Z,55.94
2023-05-14T14:31:10.565Z,56.55
2023-05-14T14:33:37.051Z,56.20
2023-05-14T14:36:03.529Z,56.53
2023-05-14T14:38:30.161Z,56.39
2023-05-14T14:40:57.042Z,56.56
2023-05-14T14:43:23.773Z,56.74
2023-05-14T14:45:50.738Z,56.50
2023-05-14T14:48:17.535Z,56.77
2023-05-14T14:50:44.282Z,56.76
2023-05-14T14:53:10.954Z,57.44
2023-05-14T14:55:37.656Z,57.17
2023-05-14T14:58:04.371Z,56.82
2023-05-14T15:00:31.114Z,56.88
2023-05-14T15:02:58.464Z,57.02
2023-05-14T15:05:25.612Z,56.87
2023-05-14T15:07:52.720Z,56.94
2023-05-14T15:10:19.365Z,56.79
2023-05-14T15:12:46.307Z,56.84
2023-05-14T15:15:13.197Z,56.73
2023-05-14T15:17:40.348Z,56.52
2023-05-14T15:20:07.549Z,57.07
2023-05-14T15:22:34.496Z,56.89
2023-05-14T15:25:01.572Z,57.06
2023-05-14T15:27:28.604Z,57.11
2023-05-14T15:29:55.696Z,56.98
2023-05-14T15:32:22.807Z,56.93
2023-05-14T15:34:49.626Z,57.34
2023-05-14T15:37:16.850Z,57.32
2023-05-14T15:39:43.676Z,57.08
2023-05-14T15:42:10.711Z,57.20
2023-05-14T15:44:38.873Z,56.95
2023-05-14T15:47:06.168Z,56.71
2023-05-14T15:49:33.294Z,56.80
2023-05-14T15:52:00.165Z,57.46
2023-05-14T15:54:27.853Z,56.97
2023-05-14T15:56:54.749Z,56.80
2023-05-14T15:59:21.766Z,57.03
2023-05-14T16:01:48.897Z,57.29
2023-05-14T16:04:17.023Z,57.61
2023-05-14T16:06:46.366Z,57.65
2023-05-14T16:09:13.474Z,57.65
2023-05-14T16:11:43.003Z,57.24
2023-05-14T16:14:10.210Z,57.20
2023-05-14T16:16:37.519Z,57.00
2023-05-14T16:19:04.844Z,57.20
2023-05-14T16:21:33.784Z,57.30
2023-05-14T16:24:00.796Z,57.47
2023-05-14T16:26:27.839Z,57.29
2023-05-14T16:28:55.490Z,57.54
2023-05-14T16:31:22.806Z,57.14
2023-05-14T16:33:52.224Z,57.18
2023-05-14T16:36:19.836Z,56.81
2023-05-14T16:39:05.379Z,56.79
2023-05-14T16:41:33.881Z,57.40
2023-05-14T16:44:01.175Z,58.28
2023-05-14T16:46:28.455Z,58.08
2023-05-14T16:48:56.061Z,57.83
2023-05-14T16:51:24.279Z,57.71
2023-05-14T16:53:52.045Z,57.34
2023-05-14T16:56:19.444Z,57.88
2023-05-14T16:58:46.573Z,57.64
2023-05-14T17:01:13.722Z,57.62
2023-05-14T17:03:40.833Z,58.02
2023-05-14T17:06:08.093Z,57.72
2023-05-14T17:08:37.326Z,57.23
2023-05-14T17:11:05.157Z,57.49
2023-05-14T17:13:32.244Z,57.51
2023-05-14T17:15:59.499Z,57.48
2023-05-14T17:18:26.776Z,57.18
2023-05-14T17:20:53.964Z,57.38
2023-05-14T17:23:21.668Z,57.60
2023-05-14T17:25:48.742Z,57.45
2023-05-14T17:28:15.949Z,57.22
2023-05-14T17:30:43.519Z,57.52
2023-05-14T17:33:10.719Z,57.31
2023-05-14T17:35:38.009Z,57.51
2023-05-14T17:38:05.909Z,57.56
2023-05-14T17:40:33.591Z,57.83
2023-05-14T17:43:00.952Z,57.85
2023-05-14T17:45:32.168Z,57.45
2023-05-14T17:48:04.061Z,56.07
2023-05-14T17:50:31.309Z,55.98
2023-05-14T17:52:59.149Z,56.21
2023-05-14T17:55:28.616Z,57.21
2023-05-14T17:57:55.815Z,58.21
2023-05-14T18:00:23.640Z,57.52
2023-05-14T18:02:51.766Z,57.33
2023-05-14T18:05:20.672Z,57.04
2023-05-14T18:07:48.062Z,56.99
2023-05-14T18:10:19.911Z,57.17
2023-05-14T18:12:50.150Z,57.64
2023-05-14T18:15:17.865Z,57.44
2023-05-14T18:17:45.806Z,57.03
2023-05-14T18:20:13.273Z,56.63
2023-05-14T18:22:42.001Z,56.34
2023-05-14T18:25:09.446Z,56.86
2023-05-14T18:27:43.886Z,56.36
2023-05-14T18:30:11.851Z,56.81
2023-05-14T18:32:42.993Z,56.97
2023-05-14T18:35:10.193Z,56.92
2023-05-14T18:37:37.533Z,56.97
2023-05-14T18:40:05.132Z,57.08
2023-05-14T18:42:32.387Z,56.93
2023-05-14T18:44:59.616Z,56.94
2023-05-14T18:47:26.823Z,57.46
2023-05-14T18:49:53.978Z,57.52
2023-05-14T18:52:21.152Z,57.75
2023-05-14T18:54:48.656Z,57.28
2023-05-14T18:57:16.891Z,57.46
2023-05-14T18:59:44.201Z,57.48
2023-05-14T19:02:12.585Z,57.34
2023-05-14T19:04:51.225Z,57.68
2023-05-14T19:07:20.911Z,57.24
2023-05-14T19:09:48.829Z,57.31
2023-05-14T19:12:16.196Z,57.16
2023-05-14T19:14:43.404Z,57.47
2023-05-14T19:17:10.671Z,58.61
2023-05-14T19:19:37.869Z,58.33
2023-05-14T19:22:05.177Z,57.66
2023-05-14T19:24:32.413Z,57.83
2023-05-14T19:27:01.147Z,57.89
2023-05-14T19:29:28.518Z,57.70
2023-05-14T19:31:55.737Z,57.72
2023-05-14T19:34:23.448Z,57.51
2023-05-14T19:36:50.615Z,57.57
2023-05-14T19:39:19.787Z,57.67
2023-05-14T19:41:48.086Z,57.71
2023-05-14T19:44:15.264Z,57.43
2023-05-14T19:46:42.422Z,57.56
2023-05-14T19:49:09.598Z,57.19
2023-05-14T19:51:37.101Z,57.75
2023-05-14T19:54:06.907Z,57.43
2023-05-14T19:56:34.324Z,57.78
2023-05-14T19:59:01.466Z,57.49
2023-05-14T20:01:28.947Z,57.51
2023-05-14T20:03:56.191Z,57.29
2023-05-14T20:06:23.740Z,57.48
2023-05-14T20:08:51.323Z,57.63
2023-05-14T20:11:18.474Z,57.73
2023-05-14T20:13:45.621Z,57.65
2023-05-14T20:16:12.816Z,57.43
2023-05-14T20:18:39.923Z,57.54
2023-05-14T20:21:07.112Z,57.39
2023-05-14T20:23:34.275Z,57.31
2023-05-14T20:26:01.455Z,57.07
2023-05-14T20:28:28.579Z,57.04
2023-05-14T20:30:55.835Z,56.95
2023-05-14T20:33:23.105Z,57.27
2023-05-14T20:35:50.281Z,57.37
2023-05-14T20:38:17.372Z,57.57
2023-05-14T20:40:44.556Z,57.30
2023-05-14T20:43:11.560Z,57.30
2023-05-14T20:45:38.552Z,57.43
2023-05-14T20:48:06.587Z,57.36
2023-05-14T20:50:33.648Z,57.41
2023-05-14T20:53:00.425Z,57.48
2023-05-14T20:55:27.362Z,57.54
2023-05-14T20:57:54.319Z,57.45
2023-05-14T21:00:20.756Z,57.38
2023-05-14T21:02:47.202Z,57.38
2023-05-14T21:05:13.736Z,57.44
2023-05-14T21:07:40.142Z,57.38
2023-05-14T21:10:07.520Z,57.59
2023-05-14T21:12:34.076Z,57.33
2023-05-14T21:15:00.473Z,57.42
2023-05-14T21:17:27.015Z,57.38
2023-05-14T21:19:53.423Z,57.25
2023-05-14T21:22:19.909Z,57.34
2023-05-14T21:24:46.364Z,57.25
2023-05-14T21:27:12.787Z,57.77
2023-05-14T21:29:39.353Z,57.46
2023-05-14T21:32:05.916Z,57.86
2023-05-14T21:34:32.575Z,57.41
2023-05-14T21:36:58.885Z,57.39
2023-05-14T21:39:25.249Z,57.40
2023-05-14T21:41:51.716Z,57.36
2023-05-14T21:44:18.060Z,57.85
2023-05-14T21:46:44.490Z,58.90
2023-05-14T21:49:10.873Z,58.51
2023-05-14T21:51:37.345Z,58.40
2023-05-14T21:54:03.774Z,58.12
2023-05-14T21:56:30.166Z,58.19
2023-05-14T21:58:56.617Z,58.30
2023-05-14T22:01:23.180Z,57.79
2023-05-14T22:03:49.788Z,58.30
2023-05-14T22:06:16.159Z,58.11
2023-05-14T22:08:42.577Z,57.99
2023-05-14T22:11:09.188Z,57.65
2023-05-14T22:13:35.615Z,57.74
2023-05-14T22:16:12.093Z,58.14
2023-05-14T22:18:39.660Z,57.82
2023-05-14T22:21:06.047Z,57.88
2023-05-14T22:23:32.505Z,58.00
2023-05-14T22:25:58.953Z,57.73
2023-05-14T22:28:25.361Z,57.55
2023-05-14T22:30:51.718Z,57.68
2023-05-14T22:33:18.176Z,57.58
2023-05-14T22:35:44.623Z,57.33
2023-05-14T22:38:10.928Z,57.67
2023-05-14T22:40:37.323Z,57.76
2023-05-14T22:43:03.705Z,57.65
2023-05-14T22:45:30.350Z,57.58
2023-05-14T22:47:56.728Z,57.68
2023-05-14T22:50:23.388Z,57.67
2023-05-14T22:52:49.766Z,57.65
2023-05-14T22:55:16.184Z,57.82
2023-05-14T22:57:42.692Z,58.10
2023-05-14T23:00:09.116Z,58.02
2023-05-14T23:02:35.550Z,57.90
2023-05-14T23:05:02.050Z,57.80
2023-05-14T23:07:28.516Z,58.47
2023-05-14T23:09:55.347Z,58.13
2023-05-14T23:12:21.806Z,58.64
2023-05-14T23:14:48.194Z,58.28
2023-05-14T23:17:14.840Z,58.06
2023-05-14T23:19:41.273Z,57.66
2023-05-14T23:22:07.772Z,57.51
2023-05-14T23:24:34.231Z,57.54
2023-05-14T23:27:00.700Z,57.40
2023-05-14T23:29:27.162Z,57.31
2023-05-14T23:31:53.687Z,57.49
2023-05-14T23:34:20.106Z,57.32
2023-05-14T23:36:46.466Z,57.22
2023-05-14T23:39:12.868Z,57.72
2023-05-14T23:41:39.339Z,57.96
2023-05-14T23:44:05.676Z,57.56
2023-05-14T23:46:32.146Z,57.31
2023-05-14T23:48:58.722Z,57.26
2023-05-14T23:51:25.285Z,57.11
2023-05-14T23:53:51.772Z,57.22
2023-05-14T23:56:18.209Z,57.08
2023-05-14T23:58:44.834Z,57.22
